« 週報 富山空港 2014/7/2 wed | トップページ | 定点 富山空港 2014/7/7 mon »

2014/07/06

定点 富山空港 2014/7/6 sun

RJNT 060100Z 01008KT 9999 FEW015 SCT025 BKN/// 27/21 Q1010

今日も、サークリング日和。

20140706_rjnt_01ja811a

20140706_rjnt_02ja811a

見慣れた景色

20140706_rjnt_03ja811a

20140706_rjnt_04ja811a

20140706_rjnt_05ja811a

ANA883 RJTT-RJNT JA821A B787-8

20140706_rjnt_06hl7737

20140706_rjnt_07hl7737

AAR128 RKSI-RJNT HL7737 A320-232

20140706_rjnt_08hl7737

#3を対岸から見ると

20140706_rjnt_09ja811a

ANA886タクシーアウトで・・

20140706_rjnt_10b18605

今日のダイナちゃんはチョッピリ早着で、ライトブレイク

20140706_rjnt_11ja811a

20140706_rjnt_12ja811a

ANA886 RJNT-RJTT JA821A B787-8

20140706_rjnt_13b18605

20140706_rjnt_14b18605

CAL170 RCTP-RJNT B-18605 B737-809

20140706_rjnt_15hl7737

RJNT 060300Z 02006KT 340V050 9999 FEW015 SCT025 BKN040 28/20 Q1009

20140706_rjnt_16hl7737

AAR127 RJNT-RKSI HL7737 A320-232

20140706_rjnt_17hokuden

鮎つりシーズンですが、ダムの放流には注意しましょう。

20140706_rjnt_18b18605

20140706_rjnt_19b18605

CAL171 RJNT-RCTP B-18605 B737-809

20140706_rjnt_20ja8595

20140706_rjnt_21ja8595

20140706_rjnt_22ja8595

ADO120 RJCC-RJNT JA8595 B737-54K

RJNT 060500Z 01008KT 9999 FEW025 SCT040 BKN/// 29/19 Q1008

20140706_rjnt_23ja604a

20140706_rjnt_24ja604a

20140706_rjnt_25ja604a

20140706_rjnt_26ja604a

ANA885 RJTT-RJNT JA604A B767-381ER

20140706_rjnt_27ja8595

ANA885が戻ってくる間に、タクシーアウト

20140706_rjnt_28ja604a

ETOPSの標記がERの印

20140706_rjnt_29ja8595

ADO121 RJNT-RJCC JA8595 B737-54K

20140706_rjnt_30ja604a

20140706_rjnt_31ja604a

20140706_rjnt_32ja604a

ANA888 RJNT-RJTT JA604A B767-381ER

RJNT 060700Z 36007KT 9999 FEW020 SCT040 BKN070 27/21 Q1008

20140706_rjnt_33ja811a

20140706_rjnt_34ja811a

20140706_rjnt_35ja811a

20140706_rjnt_36ja811a

ANA887 RJTT-RJNT JA811A B787-8

RJTT-RJNT
ANA     /882 JA8288
ANA881/884 JA602A
ANA883/886 JA821A
ANA885/888 JA604A
ANA887/890 JA811A
ANA889/892 JA821A
ANA891       JA812A

RJCC-RJNT
ADO120/121 JA8595

RKSI-RJNT
AAR128/127 HL7737

RCTP-RJNT
CAL170/171 B-18605

|

« 週報 富山空港 2014/7/2 wed | トップページ | 定点 富山空港 2014/7/7 mon »

富山空港」カテゴリの記事

コメント

コメントを書く



(ウェブ上には掲載しません)


コメントは記事投稿者が公開するまで表示されません。



トラックバック


この記事へのトラックバック一覧です: 定点 富山空港 2014/7/6 sun:

« 週報 富山空港 2014/7/2 wed | トップページ | 定点 富山空港 2014/7/7 mon »